createdAt,value
2018-11-07T00:02:13.379Z,99.90
2018-11-07T00:04:41.817Z,99.90
2018-11-07T00:07:10.263Z,99.90
2018-11-07T00:09:38.703Z,99.90
2018-11-07T00:12:07.224Z,99.90
2018-11-07T00:14:36.414Z,99.90
2018-11-07T00:17:05.144Z,99.90
2018-11-07T00:19:33.683Z,99.90
2018-11-07T00:22:02.249Z,99.90
2018-11-07T00:24:30.681Z,99.90
2018-11-07T00:26:59.143Z,99.90
2018-11-07T00:29:27.591Z,99.90
2018-11-07T00:31:56.104Z,99.90
2018-11-07T00:34:24.516Z,99.90
2018-11-07T00:36:52.932Z,99.90
2018-11-07T00:39:21.341Z,99.90
2018-11-07T00:41:49.823Z,99.90
2018-11-07T00:44:18.300Z,99.90
2018-11-07T00:46:46.733Z,99.90
2018-11-07T00:49:15.244Z,99.90
2018-11-07T00:51:43.669Z,99.90
2018-11-07T00:54:12.059Z,99.90
2018-11-07T00:56:40.462Z,99.90
2018-11-07T00:59:08.852Z,99.90
2018-11-07T01:01:37.281Z,99.90
2018-11-07T01:04:05.851Z,99.90
2018-11-07T01:06:34.621Z,99.90
2018-11-07T01:09:03.108Z,99.90
2018-11-07T01:11:31.601Z,99.90
2018-11-07T01:14:00.017Z,99.90
2018-11-07T01:16:28.472Z,99.90
2018-11-07T01:18:56.874Z,99.90
2018-11-07T01:21:25.296Z,99.90
2018-11-07T01:23:53.696Z,99.90
2018-11-07T01:26:22.121Z,99.90
2018-11-07T01:28:50.519Z,99.90
2018-11-07T01:31:18.941Z,99.90
2018-11-07T01:33:47.407Z,99.90
2018-11-07T01:36:16.029Z,99.90
2018-11-07T01:38:44.439Z,99.90
2018-11-07T01:41:12.850Z,99.90
2018-11-07T01:43:41.245Z,99.90
2018-11-07T01:46:09.669Z,99.90
2018-11-07T01:48:38.175Z,99.90
2018-11-07T01:51:06.871Z,99.90
2018-11-07T01:53:35.293Z,99.90
2018-11-07T01:56:03.738Z,99.90
2018-11-07T01:58:32.125Z,99.90
2018-11-07T02:01:00.549Z,99.90
2018-11-07T02:03:28.964Z,99.90
2018-11-07T02:05:57.374Z,99.90
2018-11-07T02:08:29.729Z,99.90
2018-11-07T02:10:58.327Z,99.90
2018-11-07T02:13:26.800Z,99.90
2018-11-07T02:15:55.282Z,99.90
2018-11-07T02:18:23.796Z,99.90
2018-11-07T02:20:52.213Z,99.90
2018-11-07T02:23:20.613Z,99.90
2018-11-07T02:25:49.112Z,99.90
2018-11-07T02:28:17.536Z,99.90
2018-11-07T02:30:45.960Z,99.90
2018-11-07T02:33:14.435Z,99.90
2018-11-07T02:35:42.862Z,99.90
2018-11-07T02:38:11.326Z,99.90
2018-11-07T02:40:39.745Z,99.90
2018-11-07T02:43:08.204Z,99.90
2018-11-07T02:45:36.700Z,99.90
2018-11-07T02:48:05.205Z,99.90
2018-11-07T02:50:33.629Z,99.90
2018-11-07T02:53:02.073Z,99.90
2018-11-07T02:55:30.492Z,99.90
2018-11-07T02:57:58.924Z,99.90
2018-11-07T03:00:27.327Z,99.90
2018-11-07T03:02:55.769Z,99.90
2018-11-07T03:05:24.187Z,99.90
2018-11-07T03:07:52.619Z,99.90
2018-11-07T03:10:21.074Z,99.90
2018-11-07T03:12:49.525Z,99.90
2018-11-07T03:15:17.944Z,99.90
2018-11-07T03:17:46.388Z,99.90
2018-11-07T03:20:14.809Z,99.90
2018-11-07T03:22:43.249Z,99.90
2018-11-07T03:25:11.712Z,99.90
2018-11-07T03:27:40.164Z,99.90
2018-11-07T03:30:09.281Z,99.90
2018-11-07T03:32:37.757Z,99.90
2018-11-07T03:35:08.541Z,99.90
2018-11-07T03:37:36.977Z,99.90
2018-11-07T03:40:06.029Z,99.90
2018-11-07T03:42:34.493Z,99.90
2018-11-07T03:45:02.929Z,99.90
2018-11-07T03:47:31.369Z,99.90
2018-11-07T03:49:59.797Z,99.90
2018-11-07T03:52:28.246Z,99.90
2018-11-07T03:54:56.665Z,99.90
2018-11-07T03:57:25.104Z,99.90
2018-11-07T03:59:53.593Z,99.90
2018-11-07T04:02:22.038Z,99.90
2018-11-07T04:04:50.466Z,99.90
2018-11-07T04:07:18.922Z,99.90
2018-11-07T04:09:47.348Z,99.90
2018-11-07T04:12:15.797Z,99.90
2018-11-07T04:14:44.218Z,99.90
2018-11-07T04:17:12.643Z,99.90
2018-11-07T04:19:41.118Z,99.90
2018-11-07T04:22:09.534Z,99.90
2018-11-07T04:24:37.981Z,99.90
2018-11-07T04:27:06.415Z,99.90
2018-11-07T04:29:34.861Z,99.90
2018-11-07T04:32:03.299Z,99.90
2018-11-07T04:34:31.757Z,99.90
2018-11-07T04:37:00.187Z,99.90
2018-11-07T04:39:28.629Z,99.90
2018-11-07T04:41:57.052Z,99.90
2018-11-07T04:44:25.489Z,99.90
2018-11-07T04:46:53.920Z,99.90
2018-11-07T04:49:22.361Z,99.90
2018-11-07T04:51:50.808Z,99.90
2018-11-07T04:54:19.243Z,99.90
2018-11-07T04:56:47.670Z,99.90
2018-11-07T04:59:16.106Z,99.90
2018-11-07T05:01:44.570Z,99.90
2018-11-07T05:04:13.055Z,99.90
2018-11-07T05:06:41.527Z,99.90
2018-11-07T05:09:10.305Z,99.90
2018-11-07T05:11:38.750Z,99.90
2018-11-07T05:14:07.245Z,99.90
2018-11-07T05:16:35.725Z,99.90
2018-11-07T05:19:04.204Z,99.90
2018-11-07T05:21:32.629Z,99.90
2018-11-07T05:24:01.081Z,99.90
2018-11-07T05:26:29.514Z,99.90
2018-11-07T05:28:57.968Z,99.90
2018-11-07T05:31:26.617Z,99.90
2018-11-07T05:33:55.192Z,99.90
2018-11-07T05:36:23.629Z,99.90
2018-11-07T05:38:52.082Z,99.90
2018-11-07T05:41:20.578Z,99.90
2018-11-07T05:43:48.997Z,99.90
2018-11-07T05:46:17.471Z,99.90
2018-11-07T05:48:45.897Z,99.90
2018-11-07T05:51:14.340Z,99.90
2018-11-07T05:53:42.787Z,99.90
2018-11-07T05:56:11.237Z,99.90
2018-11-07T05:58:39.672Z,99.90
2018-11-07T06:01:08.137Z,99.90
2018-11-07T06:03:36.572Z,99.90
2018-11-07T06:06:05.622Z,99.90
2018-11-07T06:08:34.052Z,99.90
2018-11-07T06:11:02.483Z,99.90
2018-11-07T06:13:30.951Z,99.90
2018-11-07T06:15:59.429Z,99.90
2018-11-07T06:18:27.851Z,99.90
2018-11-07T06:20:56.271Z,99.90
2018-11-07T06:23:24.708Z,99.90
2018-11-07T06:25:53.165Z,99.90
2018-11-07T06:28:21.640Z,99.90
2018-11-07T06:30:50.133Z,99.90
2018-11-07T06:33:18.576Z,99.90
2018-11-07T06:35:47.017Z,99.90
2018-11-07T06:38:15.417Z,99.90
2018-11-07T06:40:43.833Z,99.90
2018-11-07T06:43:12.241Z,99.90
2018-11-07T06:45:40.666Z,99.90
2018-11-07T06:48:09.073Z,99.90
2018-11-07T06:50:37.501Z,99.90
2018-11-07T06:53:05.982Z,99.90
2018-11-07T06:55:34.421Z,99.90
2018-11-07T06:58:02.857Z,99.90
2018-11-07T07:00:35.279Z,99.90
2018-11-07T07:03:04.652Z,99.90
2018-11-07T07:05:33.108Z,99.90
2018-11-07T07:08:01.523Z,99.90
2018-11-07T07:10:29.968Z,99.90
2018-11-07T07:12:58.399Z,99.90
2018-11-07T07:15:26.891Z,99.90
2018-11-07T07:17:55.324Z,99.90
2018-11-07T07:20:23.800Z,99.90
2018-11-07T07:22:52.223Z,99.90
2018-11-07T07:25:20.673Z,99.90
2018-11-07T07:27:49.101Z,99.90
2018-11-07T07:30:18.988Z,99.90
2018-11-07T07:32:47.843Z,99.90
2018-11-07T07:35:16.580Z,99.90
2018-11-07T07:37:45.013Z,99.90
2018-11-07T07:40:14.575Z,99.90
2018-11-07T07:42:43.840Z,99.90
2018-11-07T07:45:14.177Z,99.90
2018-11-07T07:47:43.160Z,99.90
2018-11-07T07:50:13.586Z,99.90
2018-11-07T07:52:42.560Z,99.90
2018-11-07T07:55:11.251Z,99.90
2018-11-07T07:57:40.445Z,99.90
2018-11-07T08:00:12.962Z,99.90
2018-11-07T08:02:43.346Z,99.90
2018-11-07T08:05:11.808Z,99.90
2018-11-07T08:07:40.572Z,99.90
2018-11-07T08:10:11.057Z,99.90
2018-11-07T08:12:39.476Z,99.90
2018-11-07T08:15:08.437Z,99.90
2018-11-07T08:17:36.893Z,99.90
2018-11-07T08:20:06.387Z,99.90
2018-11-07T08:22:34.849Z,99.90
2018-11-07T08:25:03.313Z,99.70
2018-11-07T08:27:31.743Z,99.70
2018-11-07T08:30:00.174Z,99.80
2018-11-07T08:32:28.620Z,99.40
2018-11-07T08:34:57.061Z,99.10
2018-11-07T08:37:25.489Z,98.70
2018-11-07T08:39:53.960Z,98.50
2018-11-07T08:42:22.468Z,98.50
2018-11-07T08:44:50.920Z,98.30
2018-11-07T08:47:19.459Z,98.00
2018-11-07T08:49:47.930Z,97.60
2018-11-07T08:52:16.369Z,97.20
2018-11-07T08:54:44.796Z,97.00
2018-11-07T08:57:13.224Z,96.40
2018-11-07T08:59:41.649Z,96.40
2018-11-07T09:02:10.189Z,96.50
2018-11-07T09:04:38.631Z,95.90
2018-11-07T09:07:07.101Z,95.90
2018-11-07T09:09:35.524Z,95.30
2018-11-07T09:12:04.019Z,95.20
2018-11-07T09:14:32.456Z,95.00
2018-11-07T09:17:00.915Z,94.80
2018-11-07T09:19:29.343Z,94.70
2018-11-07T09:21:57.775Z,94.40
2018-11-07T09:24:26.263Z,94.20
2018-11-07T09:26:54.683Z,94.00
2018-11-07T09:29:23.197Z,93.90
2018-11-07T09:31:51.597Z,93.70
2018-11-07T09:34:20.157Z,93.50
2018-11-07T09:36:48.637Z,93.50
2018-11-07T09:39:17.064Z,93.40
2018-11-07T09:41:45.499Z,92.90
2018-11-07T09:44:13.921Z,92.70
2018-11-07T09:46:42.367Z,92.50
2018-11-07T09:49:11.120Z,92.30
2018-11-07T09:51:39.576Z,91.80
2018-11-07T09:54:08.012Z,91.80
2018-11-07T09:56:36.513Z,91.50
2018-11-07T09:59:05.001Z,91.50
2018-11-07T10:01:33.487Z,91.20
2018-11-07T10:04:01.923Z,91.00
2018-11-07T10:06:30.397Z,90.60
2018-11-07T10:08:58.830Z,90.50
2018-11-07T10:11:27.285Z,89.90
2018-11-07T10:13:55.703Z,90.00
2018-11-07T10:16:24.144Z,90.50
2018-11-07T10:18:52.581Z,89.80
2018-11-07T10:21:21.049Z,88.90
2018-11-07T10:23:49.509Z,89.00
2018-11-07T10:26:17.977Z,89.40
2018-11-07T10:28:46.567Z,89.10
2018-11-07T10:31:14.861Z,88.20
2018-11-07T10:33:43.301Z,87.90
2018-11-07T10:36:11.749Z,88.10
2018-11-07T10:38:41.505Z,87.60
2018-11-07T10:41:09.873Z,87.30
2018-11-07T10:43:38.351Z,86.90
2018-11-07T10:46:06.857Z,86.10
2018-11-07T10:48:35.274Z,84.80
2018-11-07T10:51:03.759Z,85.00
2018-11-07T10:53:32.226Z,83.90
2018-11-07T10:56:00.729Z,83.60
2018-11-07T10:58:29.159Z,82.80
2018-11-07T11:01:02.977Z,83.40
2018-11-07T11:03:32.230Z,83.50
2018-11-07T11:06:00.693Z,83.10
2018-11-07T11:08:29.136Z,82.50
2018-11-07T11:10:57.705Z,83.10
2018-11-07T11:13:26.249Z,82.20
2018-11-07T11:15:54.681Z,81.60
2018-11-07T11:18:23.141Z,80.70
2018-11-07T11:20:51.586Z,80.40
2018-11-07T11:23:20.072Z,79.90
2018-11-07T11:25:48.531Z,79.30
2018-11-07T11:28:17.024Z,79.90
2018-11-07T11:30:45.483Z,78.90
2018-11-07T11:33:13.947Z,78.30
2018-11-07T11:35:42.376Z,78.00
2018-11-07T11:38:10.849Z,78.00
2018-11-07T11:40:39.302Z,77.60
2018-11-07T11:43:07.793Z,78.10
2018-11-07T11:45:36.244Z,78.00
2018-11-07T11:48:04.723Z,77.90
2018-11-07T11:50:33.192Z,76.60
2018-11-07T11:53:01.691Z,75.90
2018-11-07T11:55:30.131Z,74.40
2018-11-07T11:57:58.581Z,74.50
2018-11-07T12:00:27.033Z,74.20
2018-11-07T12:02:55.485Z,74.50
2018-11-07T12:05:23.914Z,73.70
2018-11-07T12:07:52.370Z,73.10
2018-11-07T12:10:23.988Z,74.10
2018-11-07T12:12:54.532Z,72.50
2018-11-07T12:15:24.318Z,72.30
2018-11-07T12:17:53.057Z,72.30
2018-11-07T12:20:21.541Z,72.80
2018-11-07T12:22:50.216Z,73.00
2018-11-07T12:25:19.413Z,71.30
2018-11-07T12:27:47.873Z,71.30
2018-11-07T12:30:19.017Z,71.70
2018-11-07T12:32:48.427Z,72.50
2018-11-07T12:35:17.297Z,71.50
2018-11-07T12:37:45.766Z,72.60
2018-11-07T12:40:14.771Z,72.20
2018-11-07T12:42:43.210Z,71.80
2018-11-07T12:45:12.885Z,70.60
2018-11-07T12:47:41.581Z,70.60
2018-11-07T12:50:16.556Z,70.70
2018-11-07T12:52:45.709Z,70.00
2018-11-07T12:55:14.380Z,70.70
2018-11-07T12:57:42.841Z,70.70
2018-11-07T13:00:14.737Z,70.10
2018-11-07T13:02:43.228Z,70.20
2018-11-07T13:05:12.810Z,70.70
2018-11-07T13:07:42.030Z,69.60
2018-11-07T13:10:12.751Z,68.80
2018-11-07T13:12:41.961Z,68.50
2018-11-07T13:15:11.288Z,68.60
2018-11-07T13:17:39.776Z,68.50
2018-11-07T13:20:11.243Z,69.10
2018-11-07T13:22:39.724Z,69.80
2018-11-07T13:25:09.359Z,69.50
2018-11-07T13:27:37.789Z,68.80
2018-11-07T13:30:08.523Z,67.80
2018-11-07T13:32:37.057Z,67.00
2018-11-07T13:35:06.092Z,67.20
2018-11-07T13:37:34.934Z,67.00
2018-11-07T13:40:02.987Z,67.00
2018-11-07T13:42:31.423Z,66.80
2018-11-07T13:44:59.853Z,66.90
2018-11-07T13:47:28.299Z,67.20
2018-11-07T13:49:56.732Z,67.30
2018-11-07T13:52:25.204Z,68.20
2018-11-07T13:54:53.623Z,69.00
2018-11-07T13:57:22.090Z,68.00
2018-11-07T13:59:50.513Z,67.70
2018-11-07T14:02:18.963Z,68.10
2018-11-07T14:04:47.425Z,67.90
2018-11-07T14:07:15.845Z,67.80
2018-11-07T14:09:44.297Z,68.20
2018-11-07T14:12:12.725Z,67.80
2018-11-07T14:14:41.159Z,66.80
2018-11-07T14:17:09.610Z,66.10
2018-11-07T14:19:38.123Z,66.90
2018-11-07T14:22:06.564Z,67.50
2018-11-07T14:24:35.008Z,67.50
2018-11-07T14:27:03.492Z,68.40
2018-11-07T14:29:32.129Z,68.70
2018-11-07T14:32:00.640Z,68.80
2018-11-07T14:34:29.121Z,68.00
2018-11-07T14:36:57.697Z,67.30
2018-11-07T14:39:26.081Z,66.80
2018-11-07T14:41:54.513Z,67.30
2018-11-07T14:44:22.975Z,67.90
2018-11-07T14:46:51.468Z,68.40
2018-11-07T14:49:19.976Z,69.00
2018-11-07T14:51:48.408Z,68.80
2018-11-07T14:54:16.861Z,69.30
2018-11-07T14:56:45.321Z,69.00
2018-11-07T14:59:13.786Z,69.00
2018-11-07T15:01:42.218Z,70.10
2018-11-07T15:04:10.695Z,69.10
2018-11-07T15:06:39.144Z,69.70
2018-11-07T15:09:08.733Z,69.20
2018-11-07T15:11:37.199Z,69.70
2018-11-07T15:14:05.714Z,70.30
2018-11-07T15:16:34.149Z,69.90
2018-11-07T15:19:02.806Z,69.40
2018-11-07T15:21:32.072Z,69.80
2018-11-07T15:24:00.581Z,68.60
2018-11-07T15:26:29.245Z,69.30
2018-11-07T15:28:57.697Z,70.30
2018-11-07T15:31:26.149Z,70.10
2018-11-07T15:33:54.599Z,70.20
2018-11-07T15:36:23.146Z,70.20
2018-11-07T15:38:51.569Z,71.70
2018-11-07T15:41:20.016Z,73.10
2018-11-07T15:43:48.517Z,73.10
2018-11-07T15:46:16.935Z,73.20
2018-11-07T15:48:45.387Z,73.30
2018-11-07T15:51:15.025Z,73.70
2018-11-07T15:53:43.912Z,74.30
2018-11-07T15:56:12.349Z,75.10
2018-11-07T15:58:40.809Z,75.40
2018-11-07T16:01:09.235Z,76.80
2018-11-07T16:03:43.053Z,76.70
2018-11-07T16:06:11.575Z,77.20
2018-11-07T16:08:39.965Z,78.50
2018-11-07T16:11:08.529Z,80.10
2018-11-07T16:13:37.038Z,80.60
2018-11-07T16:16:05.899Z,80.80
2018-11-07T16:18:34.363Z,81.00
2018-11-07T16:21:02.823Z,81.60
2018-11-07T16:23:31.333Z,82.40
2018-11-07T16:25:59.817Z,82.60
2018-11-07T16:28:28.298Z,82.80
2018-11-07T16:30:56.709Z,83.50
2018-11-07T16:33:25.168Z,84.30
2018-11-07T16:35:53.611Z,84.50
2018-11-07T16:38:22.084Z,83.60
2018-11-07T16:40:50.612Z,83.70
2018-11-07T16:43:19.005Z,83.40
2018-11-07T16:45:47.485Z,84.40
2018-11-07T16:48:15.979Z,84.30
2018-11-07T16:50:44.412Z,85.10
2018-11-07T16:53:12.848Z,85.00
2018-11-07T16:58:42.714Z,84.30
2018-11-07T17:01:11.171Z,83.40
2018-11-07T17:03:39.636Z,83.40
2018-11-07T17:06:08.098Z,83.20
2018-11-07T17:08:36.546Z,84.10
2018-11-07T17:11:05.105Z,84.00
2018-11-07T17:13:33.563Z,84.00
2018-11-07T17:16:02.003Z,83.90
2018-11-07T17:18:30.452Z,83.30
2018-11-07T17:20:58.886Z,83.90
2018-11-07T17:23:27.307Z,83.80
2018-11-07T17:25:55.744Z,83.30
2018-11-07T17:28:24.172Z,83.80
2018-11-07T17:30:52.624Z,83.80
2018-11-07T17:33:21.067Z,83.40
2018-11-07T17:35:49.530Z,83.80
2018-11-07T17:38:18.021Z,83.70
2018-11-07T17:40:46.458Z,83.60
2018-11-07T17:43:14.898Z,83.80
2018-11-07T17:45:43.365Z,83.70
2018-11-07T17:48:11.917Z,83.60
2018-11-07T17:50:40.321Z,83.60
2018-11-07T17:53:08.759Z,83.60
2018-11-07T17:55:37.213Z,83.60
2018-11-07T17:58:05.955Z,83.60
2018-11-07T18:00:35.077Z,83.60
2018-11-07T18:03:03.510Z,83.50
2018-11-07T18:05:31.969Z,83.50
2018-11-07T18:08:00.402Z,82.50
2018-11-07T18:10:28.874Z,82.90
2018-11-07T18:12:57.308Z,83.30
2018-11-07T18:15:25.777Z,83.40
2018-11-07T18:17:54.196Z,83.30
2018-11-07T18:20:22.681Z,83.20
2018-11-07T18:22:51.131Z,83.20
2018-11-07T18:25:19.615Z,83.20
2018-11-07T18:27:48.097Z,84.20
2018-11-07T18:30:17.267Z,84.20
2018-11-07T18:32:46.327Z,84.70
2018-11-07T18:35:16.055Z,85.10
2018-11-07T18:37:44.761Z,85.40
2018-11-07T18:40:14.382Z,85.50
2018-11-07T18:42:42.884Z,85.50
2018-11-07T18:45:12.146Z,86.20
2018-11-07T18:47:41.945Z,85.30
2018-11-07T18:50:11.710Z,85.60
2018-11-07T18:52:40.207Z,85.70
2018-11-07T18:55:10.167Z,85.80
2018-11-07T18:57:38.612Z,86.80
2018-11-07T19:00:09.329Z,86.00
2018-11-07T19:02:37.816Z,85.90
2018-11-07T19:05:06.841Z,85.70
2018-11-07T19:07:35.734Z,85.80
2018-11-07T19:10:04.772Z,85.30
2018-11-07T19:12:33.200Z,85.10
2018-11-07T19:15:01.641Z,85.00
2018-11-07T19:17:30.034Z,85.00
2018-11-07T19:19:58.476Z,85.40
2018-11-07T19:22:26.936Z,85.40
2018-11-07T19:24:55.347Z,85.40
2018-11-07T19:27:23.832Z,85.50
2018-11-07T19:29:52.220Z,85.60
2018-11-07T19:32:20.682Z,85.60
2018-11-07T19:34:49.140Z,85.50
2018-11-07T19:37:17.615Z,85.20
2018-11-07T19:39:46.082Z,85.50
2018-11-07T19:42:14.521Z,85.30
2018-11-07T19:44:42.961Z,85.20
2018-11-07T19:47:11.408Z,85.20
2018-11-07T19:49:39.832Z,85.50
2018-11-07T19:52:08.304Z,84.70
2018-11-07T19:54:36.741Z,84.50
2018-11-07T19:57:05.318Z,84.10
2018-11-07T19:59:33.787Z,83.00
2018-11-07T20:02:02.255Z,83.10
2018-11-07T20:04:30.705Z,83.10
2018-11-07T20:06:59.157Z,82.70
2018-11-07T20:09:27.605Z,82.30
2018-11-07T20:11:56.060Z,82.30
2018-11-07T20:14:24.499Z,82.50
2018-11-07T20:16:52.970Z,82.30
2018-11-07T20:19:21.455Z,82.10
2018-11-07T20:21:50.195Z,83.20
2018-11-07T20:24:18.686Z,82.50
2018-11-07T20:26:47.147Z,83.20
2018-11-07T20:29:15.594Z,84.10
2018-11-07T20:31:44.069Z,85.10
2018-11-07T20:34:12.499Z,86.40
2018-11-07T20:36:40.942Z,87.50
2018-11-07T20:39:10.833Z,88.50
2018-11-07T20:41:39.404Z,88.70
2018-11-07T20:44:08.444Z,89.10
2018-11-07T20:46:36.934Z,89.40
2018-11-07T20:49:05.944Z,90.00
2018-11-07T20:51:34.487Z,90.00
2018-11-07T20:54:03.307Z,90.00
2018-11-07T20:56:31.879Z,90.10
2018-11-07T20:59:00.315Z,90.60
2018-11-07T21:01:28.736Z,90.70
2018-11-07T21:03:57.165Z,90.80
2018-11-07T21:06:25.623Z,91.10
2018-11-07T21:08:54.057Z,91.30
2018-11-07T21:11:22.813Z,91.40
2018-11-07T21:13:51.240Z,91.60
2018-11-07T21:16:19.653Z,91.60
2018-11-07T21:18:48.069Z,91.60
2018-11-07T21:21:16.495Z,91.30
2018-11-07T21:23:44.952Z,91.00
2018-11-07T21:26:13.381Z,91.00
2018-11-07T21:28:41.895Z,90.80
2018-11-07T21:31:10.403Z,90.70
2018-11-07T21:33:39.061Z,90.60
2018-11-07T21:36:07.488Z,90.50
2018-11-07T21:38:35.962Z,90.60
2018-11-07T21:41:04.428Z,90.80
2018-11-07T21:43:32.875Z,91.20
2018-11-07T21:46:01.329Z,91.00
2018-11-07T21:48:29.786Z,91.00
2018-11-07T21:50:58.224Z,91.20
2018-11-07T21:53:26.685Z,91.40
2018-11-07T21:55:55.128Z,91.60
2018-11-07T21:58:23.564Z,91.80
2018-11-07T22:00:52.036Z,91.90
2018-11-07T22:03:20.486Z,92.20
2018-11-07T22:05:48.917Z,92.30
2018-11-07T22:08:17.361Z,92.50
2018-11-07T22:10:45.796Z,92.60
2018-11-07T22:13:14.312Z,92.80
2018-11-07T22:15:42.725Z,92.90
2018-11-07T22:18:11.196Z,93.10
2018-11-07T22:20:39.637Z,93.10
2018-11-07T22:23:08.076Z,93.20
2018-11-07T22:25:36.498Z,93.40
2018-11-07T22:28:04.972Z,93.40
2018-11-07T22:30:33.405Z,93.40
2018-11-07T22:33:01.848Z,93.40
2018-11-07T22:35:30.275Z,93.40
2018-11-07T22:37:58.720Z,93.50
2018-11-07T22:40:27.133Z,93.70
2018-11-07T22:42:55.572Z,94.00
2018-11-07T22:45:23.983Z,94.00
2018-11-07T22:47:52.425Z,94.10
2018-11-07T22:50:20.852Z,94.20
2018-11-07T22:52:49.259Z,94.40
2018-11-07T22:55:17.685Z,94.50
2018-11-07T22:57:46.119Z,94.40
2018-11-07T23:00:21.027Z,94.50
2018-11-07T23:02:51.204Z,94.60
2018-11-07T23:05:19.682Z,94.50
2018-11-07T23:07:48.594Z,94.50
2018-11-07T23:10:17.051Z,94.50
2018-11-07T23:12:45.457Z,94.40
2018-11-07T23:15:19.281Z,94.50
2018-11-07T23:17:47.709Z,94.60
2018-11-07T23:20:16.170Z,94.60
2018-11-07T23:22:44.579Z,94.70
2018-11-07T23:25:13.070Z,94.60
2018-11-07T23:27:41.495Z,94.60
2018-11-07T23:30:09.978Z,94.60
2018-11-07T23:32:38.433Z,94.70
2018-11-07T23:35:07.045Z,94.80
2018-11-07T23:37:35.521Z,94.80
2018-11-07T23:40:04.108Z,94.70
2018-11-07T23:42:32.877Z,94.90
2018-11-07T23:45:01.426Z,95.00
2018-11-07T23:47:30.057Z,95.20
2018-11-07T23:49:58.524Z,95.50
2018-11-07T23:52:32.324Z,95.50
2018-11-07T23:55:00.784Z,95.60
2018-11-07T23:57:29.258Z,95.70
2018-11-07T23:59:57.705Z,95.50
